createdAt,value
2018-06-28T00:00:23.618Z,19.70
2018-06-28T00:02:52.785Z,19.70
2018-06-28T00:05:21.604Z,19.60
2018-06-28T00:07:50.757Z,19.50
2018-06-28T00:10:19.566Z,19.50
2018-06-28T00:12:48.452Z,19.50
2018-06-28T00:15:16.969Z,19.30
2018-06-28T00:17:45.449Z,19.30
2018-06-28T00:20:13.933Z,19.30
2018-06-28T00:22:42.453Z,19.30
2018-06-28T00:25:10.905Z,19.30
2018-06-28T00:27:39.375Z,19.20
2018-06-28T00:30:07.846Z,19.10
2018-06-28T00:32:36.704Z,19.00
2018-06-28T00:35:05.985Z,19.10
2018-06-28T00:37:34.829Z,19.00
2018-06-28T00:40:03.370Z,19.00
2018-06-28T00:42:31.848Z,18.90
2018-06-28T00:45:00.688Z,18.80
2018-06-28T00:47:29.162Z,18.80
2018-06-28T00:49:58.274Z,18.70
2018-06-28T00:52:26.819Z,18.60
2018-06-28T00:54:55.293Z,18.60
2018-06-28T00:57:24.115Z,18.60
2018-06-28T00:59:53.281Z,18.60
2018-06-28T01:02:22.090Z,18.50
2018-06-28T01:04:51.244Z,18.60
2018-06-28T01:07:19.767Z,18.50
2018-06-28T01:09:48.257Z,18.40
2018-06-28T01:12:16.744Z,18.40
2018-06-28T01:14:45.552Z,18.40
2018-06-28T01:17:14.086Z,18.40
2018-06-28T01:19:42.584Z,18.30
2018-06-28T01:22:12.384Z,18.30
2018-06-28T01:24:41.257Z,18.30
2018-06-28T01:27:10.075Z,18.30
2018-06-28T01:29:38.585Z,18.30
2018-06-28T01:32:07.416Z,18.30
2018-06-28T01:34:36.575Z,18.30
2018-06-28T01:37:05.436Z,18.30
2018-06-28T01:39:34.602Z,18.30
2018-06-28T01:42:14.713Z,18.10
2018-06-28T01:44:43.190Z,18.20
2018-06-28T01:47:12.240Z,18.20
2018-06-28T01:50:11.875Z,18.20
2018-06-28T01:52:40.360Z,18.10
2018-06-28T01:55:09.696Z,18.10
2018-06-28T01:57:38.620Z,18.00
2018-06-28T02:00:07.497Z,18.00
2018-06-28T02:02:35.993Z,18.00
2018-06-28T02:05:04.504Z,17.90
2018-06-28T02:07:33.660Z,17.90
2018-06-28T02:10:02.169Z,17.80
2018-06-28T02:12:30.993Z,17.90
2018-06-28T02:14:59.809Z,17.90
2018-06-28T02:17:28.307Z,17.90
2018-06-28T02:19:57.466Z,17.80
2018-06-28T02:22:25.977Z,17.80
2018-06-28T02:24:54.473Z,17.70
2018-06-28T02:27:22.950Z,17.80
2018-06-28T02:29:51.456Z,17.70
2018-06-28T02:32:19.949Z,17.70
2018-06-28T02:34:48.434Z,17.80
2018-06-28T02:37:17.229Z,17.80
2018-06-28T02:39:45.697Z,17.70
2018-06-28T02:42:14.596Z,17.70
2018-06-28T02:44:43.760Z,17.60
2018-06-28T02:47:13.602Z,17.60
2018-06-28T02:49:42.065Z,17.60
2018-06-28T02:52:10.882Z,17.60
2018-06-28T02:54:39.367Z,17.60
2018-06-28T02:59:36.466Z,17.50
2018-06-28T03:02:05.302Z,17.60
2018-06-28T03:04:34.097Z,17.60
2018-06-28T03:07:03.213Z,17.50
2018-06-28T03:09:32.357Z,17.50
2018-06-28T03:12:00.824Z,17.60
2018-06-28T03:14:29.651Z,17.60
2018-06-28T03:16:58.458Z,17.50
2018-06-28T03:19:26.931Z,17.50
2018-06-28T03:21:55.746Z,17.50
2018-06-28T03:24:24.254Z,17.40
2018-06-28T03:26:52.837Z,17.50
2018-06-28T03:29:21.314Z,17.50
2018-06-28T03:31:50.489Z,17.50
2018-06-28T03:34:18.982Z,17.40
2018-06-28T03:36:47.459Z,17.50
2018-06-28T03:39:16.269Z,17.50
2018-06-28T03:41:44.741Z,17.50
2018-06-28T03:44:14.030Z,17.50
2018-06-28T03:46:43.136Z,17.50
2018-06-28T03:49:12.540Z,17.50
2018-06-28T03:51:41.110Z,17.50
2018-06-28T03:54:09.682Z,17.50
2018-06-28T03:56:39.245Z,17.50
2018-06-28T03:59:07.821Z,17.60
2018-06-28T04:01:36.410Z,17.60
2018-06-28T04:04:05.224Z,17.60
2018-06-28T04:06:33.746Z,17.60
2018-06-28T04:09:02.727Z,17.60
2018-06-28T04:11:31.213Z,17.50
2018-06-28T04:13:59.730Z,17.50
2018-06-28T04:16:28.254Z,17.60
2018-06-28T04:18:56.953Z,17.50
2018-06-28T04:21:26.112Z,17.50
2018-06-28T04:23:54.654Z,17.40
2018-06-28T04:26:23.494Z,17.50
2018-06-28T04:28:52.002Z,17.50
2018-06-28T04:31:20.827Z,17.50
2018-06-28T04:33:49.301Z,17.50
2018-06-28T04:36:18.117Z,17.60
2018-06-28T04:38:46.664Z,17.60
2018-06-28T04:41:16.077Z,17.60
2018-06-28T04:43:44.557Z,17.60
2018-06-28T04:46:13.057Z,17.60
2018-06-28T04:48:41.573Z,17.70
2018-06-28T04:51:10.417Z,17.70
2018-06-28T04:53:39.556Z,17.60
2018-06-28T04:56:08.724Z,17.80
2018-06-28T04:58:37.557Z,17.70
2018-06-28T05:01:07.058Z,17.80
2018-06-28T05:03:35.546Z,17.90
2018-06-28T05:06:04.143Z,17.90
2018-06-28T05:08:32.653Z,17.90
2018-06-28T05:11:01.153Z,17.80
2018-06-28T05:13:30.018Z,17.90
2018-06-28T05:15:58.531Z,17.80
2018-06-28T05:18:27.053Z,17.80
2018-06-28T05:20:57.308Z,17.80
2018-06-28T05:23:25.790Z,17.90
2018-06-28T05:25:55.122Z,18.00
2018-06-28T05:28:23.655Z,18.00
2018-06-28T05:30:52.154Z,18.10
2018-06-28T05:33:20.654Z,18.10
2018-06-28T05:35:49.228Z,18.20
2018-06-28T05:38:26.273Z,18.30
2018-06-28T05:41:19.521Z,18.30
2018-06-28T05:43:48.341Z,18.40
2018-06-28T05:46:16.829Z,18.50
2018-06-28T05:48:45.449Z,18.50
2018-06-28T05:51:13.939Z,18.50
2018-06-28T05:53:42.485Z,18.60
2018-06-28T05:56:10.993Z,18.70
2018-06-28T05:58:39.813Z,18.80
2018-06-28T06:01:08.294Z,18.90
2018-06-28T06:03:36.818Z,18.90
2018-06-28T06:06:05.881Z,19.00
2018-06-28T06:08:34.364Z,19.10
2018-06-28T06:11:03.219Z,19.20
2018-06-28T06:13:31.724Z,19.30
2018-06-28T06:16:00.544Z,19.40
2018-06-28T06:18:29.405Z,19.30
2018-06-28T06:20:58.895Z,19.40
2018-06-28T06:23:32.145Z,19.50
2018-06-28T06:26:01.289Z,19.50
2018-06-28T06:28:30.465Z,19.70
2018-06-28T06:30:59.630Z,19.70
2018-06-28T06:33:28.147Z,19.70
2018-06-28T06:35:56.989Z,19.70
2018-06-28T06:38:25.501Z,19.70
2018-06-28T06:40:53.984Z,19.70
2018-06-28T06:43:22.824Z,19.80
2018-06-28T06:45:51.674Z,19.90
2018-06-28T06:48:20.173Z,20.00
2018-06-28T06:50:49.014Z,20.20
2018-06-28T06:53:17.824Z,20.30
2018-06-28T06:55:46.661Z,20.40
2018-06-28T06:58:15.132Z,20.50
2018-06-28T07:00:43.977Z,20.60
2018-06-28T07:03:12.832Z,20.60
2018-06-28T07:05:41.340Z,20.60
2018-06-28T07:08:10.279Z,20.60
2018-06-28T07:10:39.293Z,20.70
2018-06-28T07:13:08.473Z,20.70
2018-06-28T07:15:37.287Z,20.90
2018-06-28T07:18:05.766Z,20.90
2018-06-28T07:20:34.623Z,21.20
2018-06-28T07:23:03.230Z,21.30
2018-06-28T07:25:32.473Z,21.50
2018-06-28T07:28:00.969Z,21.50
2018-06-28T07:30:29.743Z,21.70
2018-06-28T07:32:58.599Z,21.80
2018-06-28T07:35:27.980Z,21.80
2018-06-28T07:37:56.497Z,21.90
2018-06-28T07:40:25.178Z,21.90
2018-06-28T07:42:54.036Z,22.10
2018-06-28T07:45:22.570Z,22.20
2018-06-28T07:47:54.306Z,22.40
2018-06-28T07:50:23.457Z,22.50
2018-06-28T07:52:52.309Z,22.70
2018-06-28T07:55:21.528Z,22.90
2018-06-28T07:57:50.485Z,23.00
2018-06-28T08:00:19.746Z,23.00
2018-06-28T08:02:48.557Z,23.00
2018-06-28T08:05:17.396Z,23.00
2018-06-28T08:07:45.889Z,22.90
2018-06-28T08:10:14.709Z,23.00
2018-06-28T08:12:43.237Z,23.00
2018-06-28T08:15:11.708Z,23.00
2018-06-28T08:17:40.207Z,23.00
2018-06-28T08:20:08.971Z,23.20
2018-06-28T08:22:38.116Z,23.30
2018-06-28T08:25:06.985Z,23.30
2018-06-28T08:27:35.509Z,23.50
2018-06-28T08:30:04.941Z,23.60
2018-06-28T08:32:34.191Z,23.70
2018-06-28T08:35:03.010Z,23.70
2018-06-28T08:37:31.518Z,23.60
2018-06-28T08:40:00.696Z,23.80
2018-06-28T08:42:29.508Z,23.80
2018-06-28T08:47:26.265Z,23.90
2018-06-28T08:49:55.106Z,24.00
2018-06-28T08:52:24.218Z,24.10
2018-06-28T08:54:53.068Z,23.90
2018-06-28T08:57:21.897Z,23.90
2018-06-28T08:59:50.709Z,23.90
2018-06-28T09:02:19.550Z,23.90
2018-06-28T09:04:48.356Z,23.90
2018-06-28T09:07:17.393Z,23.90
2018-06-28T09:09:45.873Z,23.90
2018-06-28T09:12:14.697Z,23.90
2018-06-28T09:14:43.528Z,23.90
2018-06-28T09:17:12.057Z,24.10
2018-06-28T09:19:40.580Z,24.00
2018-06-28T09:22:09.388Z,24.20
2018-06-28T09:24:38.293Z,24.20
2018-06-28T09:27:06.780Z,24.10
2018-06-28T09:29:35.257Z,24.00
2018-06-28T09:32:03.981Z,23.90
2018-06-28T09:34:32.796Z,23.80
2018-06-28T09:37:01.301Z,23.80
2018-06-28T09:39:30.457Z,23.60
2018-06-28T09:41:58.930Z,23.70
2018-06-28T09:44:27.424Z,23.80
2018-06-28T09:46:55.921Z,23.80
2018-06-28T09:49:24.425Z,23.80
2018-06-28T09:51:52.938Z,23.90
2018-06-28T09:54:22.732Z,23.80
2018-06-28T09:56:51.245Z,23.80
2018-06-28T09:59:20.120Z,23.70
2018-06-28T10:01:48.953Z,23.60
2018-06-28T10:04:17.823Z,23.40
2018-06-28T10:06:46.334Z,23.40
2018-06-28T10:09:15.325Z,23.40
2018-06-28T10:11:44.178Z,23.40
2018-06-28T10:14:13.031Z,23.40
2018-06-28T10:16:41.862Z,23.50
2018-06-28T10:21:38.617Z,23.40
2018-06-28T10:24:07.097Z,23.40
2018-06-28T10:26:35.902Z,23.40
2018-06-28T10:29:04.721Z,23.50
2018-06-28T10:31:33.327Z,23.60
2018-06-28T10:34:01.809Z,23.50
2018-06-28T10:36:30.619Z,23.50
2018-06-28T10:38:59.084Z,23.60
2018-06-28T10:41:27.544Z,23.60
2018-06-28T10:43:56.245Z,23.60
2018-06-28T10:46:25.392Z,23.50
2018-06-28T10:48:54.406Z,23.60
2018-06-28T10:51:23.225Z,23.70
2018-06-28T10:53:51.742Z,23.70
2018-06-28T10:56:20.300Z,23.70
2018-06-28T10:58:48.931Z,23.70
2018-06-28T11:03:46.373Z,23.70
2018-06-28T11:06:14.861Z,23.80
2018-06-28T11:08:43.693Z,23.80
2018-06-28T11:11:12.503Z,23.80
2018-06-28T11:13:41.023Z,23.80
2018-06-28T11:16:09.496Z,23.80
2018-06-28T11:18:38.376Z,23.80
2018-06-28T11:21:07.428Z,23.80
2018-06-28T11:23:36.252Z,23.80
2018-06-28T11:26:05.495Z,23.80
2018-06-28T11:28:33.975Z,23.80
2018-06-28T11:31:03.193Z,23.80
2018-06-28T11:33:32.068Z,23.80
2018-06-28T11:36:00.946Z,23.80
2018-06-28T11:38:29.854Z,23.80
2018-06-28T11:40:58.345Z,23.80
2018-06-28T11:43:26.842Z,23.90
2018-06-28T11:45:56.006Z,24.00
2018-06-28T11:48:24.945Z,24.00
2018-06-28T11:50:53.404Z,23.90
2018-06-28T11:53:21.865Z,23.90
2018-06-28T11:55:50.345Z,23.90
2018-06-28T11:58:18.809Z,23.90
2018-06-28T12:00:47.276Z,24.00
2018-06-28T12:03:15.513Z,24.00
2018-06-28T12:05:45.341Z,23.90
2018-06-28T12:08:14.457Z,23.80
2018-06-28T12:10:43.263Z,23.70
2018-06-28T12:13:12.400Z,23.70
2018-06-28T12:15:41.202Z,23.80
2018-06-28T12:18:09.685Z,23.70
2018-06-28T12:20:38.165Z,23.70
2018-06-28T12:23:07.060Z,23.70
2018-06-28T12:25:35.870Z,23.70
2018-06-28T12:28:04.873Z,23.70
2018-06-28T12:30:33.348Z,23.70
2018-06-28T12:33:02.150Z,23.70
2018-06-28T12:35:31.290Z,23.70
2018-06-28T12:40:29.097Z,23.80
2018-06-28T12:42:58.262Z,23.80
2018-06-28T12:45:26.760Z,23.70
2018-06-28T12:48:13.494Z,23.60
2018-06-28T12:50:42.329Z,23.60
2018-06-28T12:53:12.441Z,23.50
2018-06-28T12:56:49.384Z,23.40
2018-06-28T12:59:19.612Z,23.30
2018-06-28T13:01:48.489Z,23.10
2018-06-28T13:04:17.297Z,23.10
2018-06-28T13:06:46.479Z,23.10
2018-06-28T13:09:17.233Z,23.00
2018-06-28T13:11:45.719Z,23.00
2018-06-28T13:14:14.546Z,22.90
2018-06-28T13:16:43.357Z,22.80
2018-06-28T13:19:11.823Z,22.80
2018-06-28T13:21:40.331Z,22.70
2018-06-28T13:24:09.493Z,22.50
2018-06-28T13:26:38.305Z,22.50
2018-06-28T13:29:07.125Z,22.50
2018-06-28T13:31:35.972Z,22.50
2018-06-28T13:34:05.200Z,22.50
2018-06-28T13:36:33.689Z,22.60
2018-06-28T13:39:02.175Z,22.60
2018-06-28T13:41:31.811Z,22.60
2018-06-28T13:44:00.868Z,22.70
2018-06-28T13:46:29.672Z,22.60
2018-06-28T13:48:58.488Z,22.50
2018-06-28T13:51:26.968Z,22.60
2018-06-28T13:53:56.128Z,22.70
2018-06-28T13:56:25.128Z,22.60
2018-06-28T13:58:54.284Z,22.60
2018-06-28T14:01:22.752Z,22.60
2018-06-28T14:03:51.553Z,22.60
2018-06-28T14:06:20.708Z,22.60
2018-06-28T14:08:49.875Z,22.60
2018-06-28T14:11:18.696Z,22.60
2018-06-28T14:13:47.162Z,22.70
2018-06-28T14:16:15.652Z,22.70
2018-06-28T14:18:44.155Z,22.70
2018-06-28T14:21:12.771Z,22.80
2018-06-28T14:23:41.252Z,22.80
2018-06-28T14:26:10.329Z,22.80
2018-06-28T14:28:39.161Z,22.80
2018-06-28T14:31:07.988Z,22.80
2018-06-28T14:33:36.509Z,22.80
2018-06-28T14:36:05.181Z,22.80
2018-06-28T14:38:33.995Z,22.80
2018-06-28T14:41:02.841Z,22.80
2018-06-28T14:43:31.617Z,22.70
2018-06-28T14:46:00.121Z,22.80
2018-06-28T14:48:28.940Z,22.70
2018-06-28T14:50:57.425Z,22.80
2018-06-28T14:53:26.255Z,22.80
2018-06-28T14:55:55.568Z,22.80
2018-06-28T14:58:24.049Z,22.80
2018-06-28T15:05:50.110Z,22.80
2018-06-28T15:08:18.625Z,22.90
2018-06-28T15:10:47.799Z,22.80
2018-06-28T15:13:16.296Z,22.80
2018-06-28T15:15:44.829Z,22.80
2018-06-28T15:18:13.636Z,22.80
2018-06-28T15:20:42.793Z,22.70
2018-06-28T15:23:11.278Z,22.70
2018-06-28T15:25:39.762Z,22.80
2018-06-28T15:28:08.281Z,22.80
2018-06-28T15:30:37.433Z,22.70
2018-06-28T15:33:06.041Z,22.60
2018-06-28T15:35:34.627Z,22.60
2018-06-28T15:38:03.519Z,22.60
2018-06-28T15:40:31.991Z,22.70
2018-06-28T15:43:00.484Z,22.70
2018-06-28T15:45:29.301Z,22.70
2018-06-28T15:47:58.130Z,22.70
2018-06-28T15:50:26.608Z,22.70
2018-06-28T15:52:55.441Z,22.60
2018-06-28T15:55:24.493Z,22.60
2018-06-28T15:57:53.080Z,22.60
2018-06-28T16:00:21.933Z,22.60
2018-06-28T16:02:50.447Z,22.70
2018-06-28T16:05:20.126Z,22.70
2018-06-28T16:07:48.989Z,22.60
2018-06-28T16:10:18.557Z,22.60
2018-06-28T16:12:48.124Z,22.70
2018-06-28T16:15:16.611Z,22.70
2018-06-28T16:17:45.440Z,22.70
2018-06-28T16:20:16.583Z,22.60
2018-06-28T16:22:47.151Z,22.60
2018-06-28T16:28:22.054Z,22.60
2018-06-28T16:30:50.877Z,22.60
2018-06-28T16:33:27.557Z,22.60
2018-06-28T16:35:56.368Z,22.70
2018-06-28T16:38:24.868Z,22.70
2018-06-28T16:40:54.400Z,22.80
2018-06-28T16:43:23.551Z,22.80
2018-06-28T16:45:52.466Z,22.80
2018-06-28T16:48:21.013Z,22.80
2018-06-28T16:50:49.550Z,22.80
2018-06-28T16:53:18.710Z,22.80
2018-06-28T16:55:47.868Z,22.80
2018-06-28T16:58:16.638Z,22.80
2018-06-28T17:00:45.821Z,22.80
2018-06-28T17:03:16.168Z,22.80
2018-06-28T17:05:45.752Z,22.80
2018-06-28T17:08:14.909Z,22.80
2018-06-28T17:10:43.376Z,22.80
2018-06-28T17:13:12.188Z,22.90
2018-06-28T17:15:41.329Z,22.90
2018-06-28T17:18:09.814Z,22.90
2018-06-28T17:20:38.685Z,22.90
2018-06-28T17:23:07.287Z,22.90
2018-06-28T17:25:36.160Z,23.00
2018-06-28T17:28:04.873Z,22.90
2018-06-28T17:30:33.416Z,22.80
2018-06-28T17:33:02.302Z,22.90
2018-06-28T17:35:31.094Z,22.80
2018-06-28T17:37:59.916Z,22.80
2018-06-28T17:40:28.401Z,22.70
2018-06-28T17:42:58.528Z,22.70
2018-06-28T17:45:27.487Z,22.70
2018-06-28T17:47:57.323Z,22.70
2018-06-28T17:50:27.220Z,22.70
2018-06-28T17:52:56.057Z,22.60
2018-06-28T17:55:24.577Z,22.60
2018-06-28T17:57:53.285Z,22.60
2018-06-28T18:00:22.100Z,22.60
2018-06-28T18:02:50.613Z,22.60
2018-06-28T18:05:20.426Z,22.60
2018-06-28T18:07:49.254Z,22.50
2018-06-28T18:10:18.033Z,22.50
2018-06-28T18:12:46.941Z,22.50
2018-06-28T18:15:16.031Z,22.50
2018-06-28T18:17:45.610Z,22.50
2018-06-28T18:20:14.493Z,22.40
2018-06-28T18:22:43.362Z,22.30
2018-06-28T18:25:12.373Z,22.30
2018-06-28T18:27:41.221Z,22.30
2018-06-28T18:30:09.823Z,22.20
2018-06-28T18:32:39.119Z,22.30
2018-06-28T18:35:09.055Z,22.30
2018-06-28T18:37:39.619Z,22.30
2018-06-28T18:40:08.782Z,22.20
2018-06-28T18:42:39.684Z,22.20
2018-06-28T18:45:08.260Z,22.10
2018-06-28T18:50:08.385Z,22.10
2018-06-28T18:52:42.455Z,22.10
2018-06-28T18:55:11.537Z,22.10
2018-06-28T18:57:40.384Z,22.10
2018-06-28T19:00:10.430Z,22.10
2018-06-28T19:03:43.382Z,22.10
2018-06-28T19:06:11.919Z,22.10
2018-06-28T19:08:40.844Z,22.10
2018-06-28T19:11:13.741Z,22.00
2018-06-28T19:13:53.747Z,22.00
2018-06-28T19:16:27.825Z,22.00
2018-06-28T19:19:02.330Z,22.00
2018-06-28T19:21:36.672Z,22.00
2018-06-28T19:24:17.022Z,22.00
2018-06-28T19:27:14.017Z,22.00
2018-06-28T19:30:04.495Z,22.00
2018-06-28T19:35:27.285Z,21.90
2018-06-28T19:37:56.091Z,22.00
2018-06-28T19:40:30.088Z,22.00
2018-06-28T19:43:01.147Z,21.90
2018-06-28T19:45:30.682Z,21.90
2018-06-28T19:48:00.310Z,21.90
2018-06-28T19:50:35.186Z,21.80
2018-06-28T19:53:06.993Z,21.80
2018-06-28T19:55:38.505Z,21.80
2018-06-28T19:58:08.627Z,21.80
2018-06-28T20:00:43.568Z,21.80
2018-06-28T20:03:17.789Z,21.70
2018-06-28T20:05:47.927Z,21.70
2018-06-28T20:08:17.971Z,21.70
2018-06-28T20:10:46.803Z,21.70
2018-06-28T20:13:20.854Z,21.70
2018-06-28T20:15:56.393Z,21.70
2018-06-28T20:18:34.429Z,21.70
2018-06-28T20:21:06.904Z,21.70
2018-06-28T20:23:35.928Z,21.70
2018-06-28T20:26:09.825Z,21.70
2018-06-28T20:28:49.135Z,21.70
2018-06-28T20:31:22.932Z,21.70
2018-06-28T20:33:57.090Z,21.60
2018-06-28T20:36:26.240Z,21.60
2018-06-28T20:38:56.373Z,21.60
2018-06-28T20:41:26.130Z,21.50
2018-06-28T20:43:55.153Z,21.50
2018-06-28T20:46:25.297Z,21.50
2018-06-28T20:48:54.500Z,21.50
2018-06-28T20:51:24.071Z,21.50
2018-06-28T20:53:55.413Z,21.50
2018-06-28T20:56:56.061Z,21.40
2018-06-28T20:59:24.608Z,21.40
2018-06-28T21:01:53.454Z,21.40
2018-06-28T21:04:35.263Z,21.40
2018-06-28T21:07:04.516Z,21.40
2018-06-28T21:12:22.424Z,21.30
2018-06-28T21:14:53.777Z,21.30
2018-06-28T21:17:28.614Z,21.30
2018-06-28T21:19:57.921Z,21.40
2018-06-28T21:22:26.472Z,21.30
2018-06-28T21:25:07.779Z,21.30
2018-06-28T21:27:38.169Z,21.20
2018-06-28T21:30:07.403Z,21.20
2018-06-28T21:50:09.907Z,21.10
2018-06-28T21:52:38.396Z,21.30
2018-06-28T21:55:06.940Z,21.30
2018-06-28T21:57:35.601Z,21.30
2018-06-28T22:00:06.211Z,21.10
2018-06-28T22:02:35.018Z,21.10
2018-06-28T22:05:03.864Z,21.00
2018-06-28T22:07:33.016Z,21.00
2018-06-28T22:12:30.089Z,21.00
2018-06-28T22:14:58.552Z,20.90
2018-06-28T22:17:27.343Z,20.90
2018-06-28T22:22:24.609Z,20.90
2018-06-28T22:24:53.818Z,21.00
2018-06-28T22:27:22.308Z,20.90
2018-06-28T22:29:50.774Z,20.90
2018-06-28T22:32:19.252Z,20.90
2018-06-28T22:34:47.744Z,20.90
2018-06-28T22:37:16.880Z,20.90
2018-06-28T22:39:45.692Z,20.90
2018-06-28T22:42:14.524Z,20.90
2018-06-28T22:44:43.676Z,20.90
2018-06-28T22:47:12.162Z,21.00
2018-06-28T22:49:40.648Z,20.90
2018-06-28T22:52:09.140Z,20.90
2018-06-28T22:54:37.609Z,20.80
2018-06-28T22:57:06.084Z,20.90
2018-06-28T22:59:35.228Z,20.90
2018-06-28T23:02:03.708Z,20.90
2018-06-28T23:04:32.200Z,20.90
2018-06-28T23:07:01.418Z,21.00
2018-06-28T23:10:54.273Z,21.20
2018-06-28T23:13:22.737Z,21.10
2018-06-28T23:15:51.577Z,21.00
2018-06-28T23:18:20.389Z,21.10
2018-06-28T23:20:49.209Z,21.10
2018-06-28T23:23:17.973Z,21.10
2018-06-28T23:25:46.811Z,21.20
2018-06-28T23:28:15.646Z,21.30
2018-06-28T23:30:44.112Z,21.20
2018-06-28T23:33:12.917Z,21.30
2018-06-28T23:35:41.389Z,21.40
2018-06-28T23:38:10.226Z,21.30
2018-06-28T23:43:07.279Z,21.20
2018-06-28T23:45:36.069Z,21.20
2018-06-28T23:48:04.570Z,21.20
2018-06-28T23:50:33.373Z,21.20
2018-06-28T23:53:02.184Z,21.20
2018-06-28T23:55:30.704Z,21.20
2018-06-28T23:57:59.181Z,21.20
